sensor_id;sensor_type;location;lat;lon;timestamp;pressure;altitude;pressure_sealevel;temperature;humidity
4705;BME280;2366;51.332;6.610;2023-02-15T00:00:11;102798.00;;;6.98;67.08
4705;BME280;2366;51.332;6.610;2023-02-15T00:02:37;102780.56;;;6.85;67.55
4705;BME280;2366;51.332;6.610;2023-02-15T00:05:02;102788.41;;;6.91;67.17
4705;BME280;2366;51.332;6.610;2023-02-15T00:07:28;102790.25;;;6.86;67.30
4705;BME280;2366;51.332;6.610;2023-02-15T00:09:53;102781.53;;;6.81;66.97
4705;BME280;2366;51.332;6.610;2023-02-15T00:12:18;102786.84;;;6.76;67.80
4705;BME280;2366;51.332;6.610;2023-02-15T00:14:44;102790.28;;;6.83;67.33
4705;BME280;2366;51.332;6.610;2023-02-15T00:17:09;102773.63;;;6.78;67.55
4705;BME280;2366;51.332;6.610;2023-02-15T00:19:34;102773.63;;;6.78;67.82
4705;BME280;2366;51.332;6.610;2023-02-15T00:22:00;102770.16;;;6.76;68.04
4705;BME280;2366;51.332;6.610;2023-02-15T00:24:25;102772.78;;;6.77;67.75
4705;BME280;2366;51.332;6.610;2023-02-15T00:26:52;102773.66;;;6.76;67.48
4705;BME280;2366;51.332;6.610;2023-02-15T00:29:18;102766.69;;;6.72;67.69
4705;BME280;2366;51.332;6.610;2023-02-15T00:31:44;102769.34;;;6.72;67.41
4705;BME280;2366;51.332;6.610;2023-02-15T00:34:15;102755.31;;;6.70;68.02
4705;BME280;2366;51.332;6.610;2023-02-15T00:36:41;102768.50;;;6.69;68.10
4705;BME280;2366;51.332;6.610;2023-02-15T00:39:07;102756.19;;;6.68;67.67
4705;BME280;2366;51.332;6.610;2023-02-15T00:41:33;102768.56;;;6.63;68.04
4705;BME280;2366;51.332;6.610;2023-02-15T00:43:58;102769.47;;;6.62;67.98
4705;BME280;2366;51.332;6.610;2023-02-15T00:46:23;102763.34;;;6.58;67.80
4705;BME280;2366;51.332;6.610;2023-02-15T00:48:49;102759.84;;;6.56;67.88
4705;BME280;2366;51.332;6.610;2023-02-15T00:51:15;102758.94;;;6.57;68.17
4705;BME280;2366;51.332;6.610;2023-02-15T00:53:42;102760.78;;;6.53;67.60
4705;BME280;2366;51.332;6.610;2023-02-15T00:56:08;102759.06;;;6.51;67.79
4705;BME280;2366;51.332;6.610;2023-02-15T00:58:34;102757.31;;;6.48;68.05
4705;BME280;2366;51.332;6.610;2023-02-15T01:01:09;102764.38;;;6.46;67.77
4705;BME280;2366;51.332;6.610;2023-02-15T01:03:34;102760.97;;;6.36;67.64
4705;BME280;2366;51.332;6.610;2023-02-15T01:06:00;102771.56;;;6.32;68.40
4705;BME280;2366;51.332;6.610;2023-02-15T01:08:26;102760.13;;;6.33;68.62
4705;BME280;2366;51.332;6.610;2023-02-15T01:10:52;102768.03;;;6.33;68.52
4705;BME280;2366;51.332;6.610;2023-02-15T01:13:18;102760.09;;;6.34;68.17
4705;BME280;2366;51.332;6.610;2023-02-15T01:15:43;102757.47;;;6.33;68.03
4705;BME280;2366;51.332;6.610;2023-02-15T01:18:10;102761.88;;;6.32;68.55
4705;BME280;2366;51.332;6.610;2023-02-15T01:20:37;102760.06;;;6.39;68.58
4705;BME280;2366;51.332;6.610;2023-02-15T01:23:05;102754.78;;;6.37;68.20
4705;BME280;2366;51.332;6.610;2023-02-15T01:25:33;102756.63;;;6.31;67.72
4705;BME280;2366;51.332;6.610;2023-02-15T01:27:59;102755.81;;;6.26;68.05
4705;BME280;2366;51.332;6.610;2023-02-15T01:30:24;102756.69;;;6.26;68.02
4705;BME280;2366;51.332;6.610;2023-02-15T01:32:49;102754.09;;;6.22;68.19
4705;BME280;2366;51.332;6.610;2023-02-15T01:35:15;102749.72;;;6.21;68.20
4705;BME280;2366;51.332;6.610;2023-02-15T01:37:40;102750.66;;;6.16;68.12
4705;BME280;2366;51.332;6.610;2023-02-15T01:40:08;102745.38;;;6.16;68.17
4705;BME280;2366;51.332;6.610;2023-02-15T01:42:38;102745.44;;;6.12;68.74
4705;BME280;2366;51.332;6.610;2023-02-15T01:45:19;102750.66;;;6.18;68.97
4705;BME280;2366;51.332;6.610;2023-02-15T01:50:22;102734.84;;;6.15;68.67
4705;BME280;2366;51.332;6.610;2023-02-15T01:53:01;102739.25;;;6.16;68.58
4705;BME280;2366;51.332;6.610;2023-02-15T01:55:36;102738.41;;;6.12;68.57
4705;BME280;2366;51.332;6.610;2023-02-15T01:58:02;102736.63;;;6.14;68.72
4705;BME280;2366;51.332;6.610;2023-02-15T02:00:28;102726.94;;;6.18;69.03
4705;BME280;2366;51.332;6.610;2023-02-15T02:02:55;102720.72;;;6.24;68.56
4705;BME280;2366;51.332;6.610;2023-02-15T02:05:22;102725.13;;;6.22;68.13
4705;BME280;2366;51.332;6.610;2023-02-15T02:07:50;102728.69;;;6.17;68.69
4705;BME280;2366;51.332;6.610;2023-02-15T02:10:21;102726.03;;;6.21;67.87
4705;BME280;2366;51.332;6.610;2023-02-15T02:12:49;102726.09;;;6.14;68.23
4705;BME280;2366;51.332;6.610;2023-02-15T02:15:16;102720.88;;;6.08;68.37
4705;BME280;2366;51.332;6.610;2023-02-15T02:23:47;102701.63;;;6.03;68.79
4705;BME280;2366;51.332;6.610;2023-02-15T02:29:11;102697.22;;;6.05;68.89
4705;BME280;2366;51.332;6.610;2023-02-15T02:32:08;102701.63;;;6.03;68.77
4705;BME280;2366;51.332;6.610;2023-02-15T02:34:56;102697.25;;;6.02;68.89
4705;BME280;2366;51.332;6.610;2023-02-15T02:37:46;102694.59;;;6.02;68.34
4705;BME280;2366;51.332;6.610;2023-02-15T02:40:22;102687.63;;;5.98;68.57
4705;BME280;2366;51.332;6.610;2023-02-15T02:42:57;102685.03;;;5.95;68.88
4705;BME280;2366;51.332;6.610;2023-02-15T02:46:13;102677.09;;;5.93;68.80
4705;BME280;2366;51.332;6.610;2023-02-15T02:48:32;102678.88;;;5.93;68.56
4705;BME280;2366;51.332;6.610;2023-02-15T02:50:58;102678.94;;;5.90;68.95
4705;BME280;2366;51.332;6.610;2023-02-15T02:53:24;102672.75;;;5.91;69.09
4705;BME280;2366;51.332;6.610;2023-02-15T02:56:17;102678.03;;;5.89;69.12
4705;BME280;2366;51.332;6.610;2023-02-15T02:59:17;102661.31;;;5.92;68.82
4705;BME280;2366;51.332;6.610;2023-02-15T03:01:53;102665.75;;;5.90;69.01
4705;BME280;2366;51.332;6.610;2023-02-15T03:04:43;102659.69;;;5.82;68.85
4705;BME280;2366;51.332;6.610;2023-02-15T03:07:14;102654.41;;;5.83;68.76
4705;BME280;2366;51.332;6.610;2023-02-15T03:09:46;102650.94;;;5.78;69.12
4705;BME280;2366;51.332;6.610;2023-02-15T03:14:44;102656.22;;;5.78;69.17
4705;BME280;2366;51.332;6.610;2023-02-15T03:17:12;102651.88;;;5.74;68.86
4705;BME280;2366;51.332;6.610;2023-02-15T03:19:39;102659.81;;;5.71;68.94
4705;BME280;2366;51.332;6.610;2023-02-15T03:22:38;102652.78;;;5.71;69.01
4705;BME280;2366;51.332;6.610;2023-02-15T03:25:50;102654.56;;;5.69;68.96
4705;BME280;2366;51.332;6.610;2023-02-15T03:27:59;102662.44;;;5.68;69.59
4705;BME280;2366;51.332;6.610;2023-02-15T03:30:28;102656.31;;;5.67;69.21
4705;BME280;2366;51.332;6.610;2023-02-15T03:32:56;102654.56;;;5.68;69.21
4705;BME280;2366;51.332;6.610;2023-02-15T03:35:25;102652.88;;;5.62;69.49
4705;BME280;2366;51.332;6.610;2023-02-15T03:38:00;102648.47;;;5.63;69.58
4705;BME280;2366;51.332;6.610;2023-02-15T03:40:32;102648.44;;;5.66;69.24
4705;BME280;2366;51.332;6.610;2023-02-15T03:43:30;102644.94;;;5.67;69.85
4705;BME280;2366;51.332;6.610;2023-02-15T03:46:05;102648.47;;;5.64;69.69
4705;BME280;2366;51.332;6.610;2023-02-15T03:48:37;102651.09;;;5.64;69.28
4705;BME280;2366;51.332;6.610;2023-02-15T03:51:07;102644.13;;;5.62;69.62
4705;BME280;2366;51.332;6.610;2023-02-15T03:53:54;102652.00;;;5.62;69.71
4705;BME280;2366;51.332;6.610;2023-02-15T03:56:20;102649.41;;;5.57;69.71
4705;BME280;2366;51.332;6.610;2023-02-15T03:58:46;102647.63;;;5.59;69.30
4705;BME280;2366;51.332;6.610;2023-02-15T04:01:37;102644.19;;;5.55;69.83
4705;BME280;2366;51.332;6.610;2023-02-15T04:04:32;102635.38;;;5.55;69.49
4705;BME280;2366;51.332;6.610;2023-02-15T04:06:59;102635.41;;;5.53;69.48
4705;BME280;2366;51.332;6.610;2023-02-15T04:09:24;102634.53;;;5.54;69.78
4705;BME280;2366;51.332;6.610;2023-02-15T04:12:08;102638.97;;;5.51;69.61
4705;BME280;2366;51.332;6.610;2023-02-15T04:14:34;102645.13;;;5.47;69.55
4705;BME280;2366;51.332;6.610;2023-02-15T04:17:18;102639.84;;;5.48;69.65
4705;BME280;2366;51.332;6.610;2023-02-15T04:19:43;102640.69;;;5.52;69.76
4705;BME280;2366;51.332;6.610;2023-02-15T04:22:27;102639.88;;;5.47;69.65
4705;BME280;2366;51.332;6.610;2023-02-15T04:25:11;102647.81;;;5.41;69.60
4705;BME280;2366;51.332;6.610;2023-02-15T04:27:38;102648.63;;;5.44;69.83
4705;BME280;2366;51.332;6.610;2023-02-15T04:30:04;102649.53;;;5.45;69.42
4705;BME280;2366;51.332;6.610;2023-02-15T04:32:30;102644.31;;;5.39;69.65
4705;BME280;2366;51.332;6.610;2023-02-15T04:34:55;102643.47;;;5.38;69.92
4705;BME280;2366;51.332;6.610;2023-02-15T04:37:21;102639.91;;;5.42;69.93
4705;BME280;2366;51.332;6.610;2023-02-15T04:39:46;102639.06;;;5.39;69.77
4705;BME280;2366;51.332;6.610;2023-02-15T04:42:11;102639.03;;;5.42;69.59
4705;BME280;2366;51.332;6.610;2023-02-15T04:44:37;102633.75;;;5.42;69.67
4705;BME280;2366;51.332;6.610;2023-02-15T04:47:02;102642.66;;;5.31;69.35
4705;BME280;2366;51.332;6.610;2023-02-15T04:49:29;102635.63;;;5.30;69.73
4705;BME280;2366;51.332;6.610;2023-02-15T04:51:54;102631.22;;;5.34;69.83
4705;BME280;2366;51.332;6.610;2023-02-15T04:54:20;102633.81;;;5.35;69.96
4705;BME280;2366;51.332;6.610;2023-02-15T04:56:45;102620.66;;;5.35;69.88
4705;BME280;2366;51.332;6.610;2023-02-15T04:59:11;102627.72;;;5.30;70.02
4705;BME280;2366;51.332;6.610;2023-02-15T05:01:36;102638.22;;;5.35;69.88
4705;BME280;2366;51.332;6.610;2023-02-15T05:04:02;102630.34;;;5.33;69.93
4705;BME280;2366;51.332;6.610;2023-02-15T05:06:28;102625.09;;;5.30;69.93
4705;BME280;2366;51.332;6.610;2023-02-15T05:08:53;102629.50;;;5.30;69.78
4705;BME280;2366;51.332;6.610;2023-02-15T05:11:19;102622.47;;;5.30;69.74
4705;BME280;2366;51.332;6.610;2023-02-15T05:13:44;102620.75;;;5.26;70.01
4705;BME280;2366;51.332;6.610;2023-02-15T05:16:10;102614.63;;;5.24;69.88
4705;BME280;2366;51.332;6.610;2023-02-15T05:18:35;102618.16;;;5.22;70.17
4705;BME280;2366;51.332;6.610;2023-02-15T05:21:00;102618.16;;;5.23;70.07
4705;BME280;2366;51.332;6.610;2023-02-15T05:23:26;102611.13;;;5.25;69.86
4705;BME280;2366;51.332;6.610;2023-02-15T05:25:51;102612.91;;;5.23;69.78
4705;BME280;2366;51.332;6.610;2023-02-15T05:28:37;102612.00;;;5.24;69.69
4705;BME280;2366;51.332;6.610;2023-02-15T05:31:09;102605.88;;;5.25;69.74
4705;BME280;2366;51.332;6.610;2023-02-15T05:33:35;102600.66;;;5.19;69.94
4705;BME280;2366;51.332;6.610;2023-02-15T05:36:01;102599.75;;;5.25;69.68
4705;BME280;2366;51.332;6.610;2023-02-15T05:38:27;102599.75;;;5.20;69.80
4705;BME280;2366;51.332;6.610;2023-02-15T05:40:53;102598.88;;;5.21;69.44
4705;BME280;2366;51.332;6.610;2023-02-15T05:43:19;102605.91;;;5.19;69.64
4705;BME280;2366;51.332;6.610;2023-02-15T05:45:46;102606.78;;;5.18;69.54
4705;BME280;2366;51.332;6.610;2023-02-15T05:48:11;102600.66;;;5.16;69.55
4705;BME280;2366;51.332;6.610;2023-02-15T05:50:37;102605.06;;;5.15;69.86
4705;BME280;2366;51.332;6.610;2023-02-15T05:53:02;102600.66;;;5.19;69.66
4705;BME280;2366;51.332;6.610;2023-02-15T05:55:27;102598.03;;;5.19;69.71
4705;BME280;2366;51.332;6.610;2023-02-15T05:57:53;102591.06;;;5.15;69.81
4705;BME280;2366;51.332;6.610;2023-02-15T06:00:18;102598.91;;;5.20;70.06
4705;BME280;2366;51.332;6.610;2023-02-15T06:02:44;102609.41;;;5.21;69.54
4705;BME280;2366;51.332;6.610;2023-02-15T06:05:09;102600.66;;;5.21;69.00
4705;BME280;2366;51.332;6.610;2023-02-15T06:07:35;102600.75;;;5.10;69.25
4705;BME280;2366;51.332;6.610;2023-02-15T06:10:00;102609.56;;;5.03;69.71
4705;BME280;2366;51.332;6.610;2023-02-15T06:12:26;102605.09;;;5.11;69.63
4705;BME280;2366;51.332;6.610;2023-02-15T06:14:51;102611.22;;;5.13;69.38
4705;BME280;2366;51.332;6.610;2023-02-15T06:17:16;102604.31;;;5.01;69.27
4705;BME280;2366;51.332;6.610;2023-02-15T06:19:42;102615.72;;;5.03;69.19
4705;BME280;2366;51.332;6.610;2023-02-15T06:22:08;102609.59;;;5.00;69.61
4705;BME280;2366;51.332;6.610;2023-02-15T06:24:33;102612.19;;;5.03;69.89
4705;BME280;2366;51.332;6.610;2023-02-15T06:26:59;102612.13;;;5.10;69.07
4705;BME280;2366;51.332;6.610;2023-02-15T06:29:24;102606.03;;;5.07;69.54
4705;BME280;2366;51.332;6.610;2023-02-15T06:31:50;102613.91;;;5.07;69.36
4705;BME280;2366;51.332;6.610;2023-02-15T06:34:15;102623.59;;;5.02;69.40
4705;BME280;2366;51.332;6.610;2023-02-15T06:36:41;102619.22;;;5.02;69.41
4705;BME280;2366;51.332;6.610;2023-02-15T06:39:06;102622.69;;;5.04;69.35
4705;BME280;2366;51.332;6.610;2023-02-15T06:41:32;102619.19;;;5.04;69.31
4705;BME280;2366;51.332;6.610;2023-02-15T06:43:57;102625.38;;;5.00;69.47
4705;BME280;2366;51.332;6.610;2023-02-15T06:46:22;102616.59;;;5.01;69.47
4705;BME280;2366;51.332;6.610;2023-02-15T06:48:48;102621.88;;;4.99;69.51
4705;BME280;2366;51.332;6.610;2023-02-15T06:51:13;102629.75;;;4.99;69.80
4705;BME280;2366;51.332;6.610;2023-02-15T06:53:39;102624.47;;;5.01;69.61
4705;BME280;2366;51.332;6.610;2023-02-15T06:56:09;102627.97;;;5.03;69.57
4705;BME280;2366;51.332;6.610;2023-02-15T06:58:43;102630.56;;;5.07;69.30
4705;BME280;2366;51.332;6.610;2023-02-15T07:01:11;102625.25;;;5.13;69.18
4705;BME280;2366;51.332;6.610;2023-02-15T07:03:37;102622.59;;;5.15;69.07
4705;BME280;2366;51.332;6.610;2023-02-15T07:06:03;102619.06;;;5.21;68.96
4705;BME280;2366;51.332;6.610;2023-02-15T07:08:33;102619.00;;;5.27;69.08
4705;BME280;2366;51.332;6.610;2023-02-15T07:10:59;102611.03;;;5.34;69.15
4705;BME280;2366;51.332;6.610;2023-02-15T07:13:45;102618.88;;;5.42;69.17
4705;BME280;2366;51.332;6.610;2023-02-15T07:16:11;102610.88;;;5.48;69.04
4705;BME280;2366;51.332;6.610;2023-02-15T07:18:36;102614.34;;;5.55;68.73
4705;BME280;2366;51.332;6.610;2023-02-15T07:21:02;102612.53;;;5.60;68.06
4705;BME280;2366;51.332;6.610;2023-02-15T07:23:27;102606.19;;;5.78;68.21
4705;BME280;2366;51.332;6.610;2023-02-15T07:25:57;102605.03;;;6.67;67.28
4705;BME280;2366;51.332;6.610;2023-02-15T07:28:22;102599.63;;;7.76;65.61
4705;BME280;2366;51.332;6.610;2023-02-15T07:30:48;102602.47;;;8.52;61.48
4705;BME280;2366;51.332;6.610;2023-02-15T07:33:13;102591.09;;;8.84;59.36
4705;BME280;2366;51.332;6.610;2023-02-15T07:35:55;102585.34;;;9.04;57.40
4705;BME280;2366;51.332;6.610;2023-02-15T07:38:24;102585.50;;;8.98;56.43
4705;BME280;2366;51.332;6.610;2023-02-15T07:40:50;102577.66;;;9.28;55.77
4705;BME280;2366;51.332;6.610;2023-02-15T07:43:16;102569.63;;;9.33;55.15
4705;BME280;2366;51.332;6.610;2023-02-15T07:45:41;102568.22;;;10.13;54.79
4705;BME280;2366;51.332;6.610;2023-02-15T07:48:07;102578.66;;;11.02;52.45
4705;BME280;2366;51.332;6.610;2023-02-15T07:50:33;102569.28;;;11.42;50.21
4705;BME280;2366;51.332;6.610;2023-02-15T07:53:01;102564.06;;;11.64;48.60
4705;BME280;2366;51.332;6.610;2023-02-15T07:55:26;102568.38;;;11.92;48.89
4705;BME280;2366;51.332;6.610;2023-02-15T07:57:52;102564.69;;;12.42;46.46
4705;BME280;2366;51.332;6.610;2023-02-15T08:00:20;102564.69;;;12.64;46.49
4705;BME280;2366;51.332;6.610;2023-02-15T08:02:51;102571.78;;;13.48;44.83
4705;BME280;2366;51.332;6.610;2023-02-15T08:05:37;102565.22;;;13.37;43.98
4705;BME280;2366;51.332;6.610;2023-02-15T08:08:02;102554.56;;;12.51;45.95
4705;BME280;2366;51.332;6.610;2023-02-15T08:10:28;102553.28;;;12.16;45.76
4705;BME280;2366;51.332;6.610;2023-02-15T08:13:12;102556.94;;;12.36;46.04
4705;BME280;2366;51.332;6.610;2023-02-15T08:15:37;102548.91;;;12.59;44.45
4705;BME280;2366;51.332;6.610;2023-02-15T08:18:02;102542.19;;;13.54;44.12
4705;BME280;2366;51.332;6.610;2023-02-15T08:20:28;102546.56;;;14.50;41.04
4705;BME280;2366;51.332;6.610;2023-02-15T08:22:53;102538.88;;;15.15;39.80
4705;BME280;2366;51.332;6.610;2023-02-15T08:25:18;102541.41;;;14.47;40.40
4705;BME280;2366;51.332;6.610;2023-02-15T08:27:44;102531.66;;;14.83;41.31
4705;BME280;2366;51.332;6.610;2023-02-15T08:30:10;102534.00;;;15.57;39.87
4705;BME280;2366;51.332;6.610;2023-02-15T08:32:35;102538.22;;;16.58;38.62
4705;BME280;2366;51.332;6.610;2023-02-15T08:35:02;102535.91;;;16.98;37.13
4705;BME280;2366;51.332;6.610;2023-02-15T08:37:27;102533.88;;;16.71;37.40
4705;BME280;2366;51.332;6.610;2023-02-15T08:39:52;102527.84;;;16.83;36.77
4705;BME280;2366;51.332;6.610;2023-02-15T08:42:18;102527.69;;;17.01;35.30
4705;BME280;2366;51.332;6.610;2023-02-15T08:44:45;102528.53;;;17.46;36.24
4705;BME280;2366;51.332;6.610;2023-02-15T08:47:11;102520.66;;;17.43;35.94
4705;BME280;2366;51.332;6.610;2023-02-15T08:49:36;102524.56;;;18.09;35.08
4705;BME280;2366;51.332;6.610;2023-02-15T08:52:02;102528.63;;;18.69;32.86
4705;BME280;2366;51.332;6.610;2023-02-15T08:54:27;102526.59;;;17.34;35.57
4705;BME280;2366;51.332;6.610;2023-02-15T08:56:52;102512.97;;;17.37;34.54
4705;BME280;2366;51.332;6.610;2023-02-15T08:59:22;102518.47;;;17.78;34.52
4705;BME280;2366;51.332;6.610;2023-02-15T09:01:50;102523.34;;;17.86;33.78
4705;BME280;2366;51.332;6.610;2023-02-15T09:04:15;102524.81;;;18.19;34.76
4705;BME280;2366;51.332;6.610;2023-02-15T09:06:42;102524.28;;;17.71;34.13
4705;BME280;2366;51.332;6.610;2023-02-15T09:09:09;102504.84;;;17.67;34.56
4705;BME280;2366;51.332;6.610;2023-02-15T09:11:40;102507.72;;;17.50;34.59
4705;BME280;2366;51.332;6.610;2023-02-15T09:14:15;102511.94;;;17.68;33.92
4705;BME280;2366;51.332;6.610;2023-02-15T09:16:43;102518.56;;;18.33;33.93
4705;BME280;2366;51.332;6.610;2023-02-15T09:19:11;102517.06;;;18.14;33.68
4705;BME280;2366;51.332;6.610;2023-02-15T09:21:37;102513.44;;;18.15;34.28
4705;BME280;2366;51.332;6.610;2023-02-15T09:24:09;102513.34;;;18.84;32.66
4705;BME280;2366;51.332;6.610;2023-02-15T09:26:40;102513.63;;;18.12;34.03
4705;BME280;2366;51.332;6.610;2023-02-15T09:29:06;102512.78;;;17.97;33.59
4705;BME280;2366;51.332;6.610;2023-02-15T09:31:36;102516.66;;;18.20;33.58
4705;BME280;2366;51.332;6.610;2023-02-15T09:34:02;102521.34;;;18.71;33.54
4705;BME280;2366;51.332;6.610;2023-02-15T09:36:32;102508.63;;;18.60;32.64
4705;BME280;2366;51.332;6.610;2023-02-15T09:39:13;102509.34;;;17.23;34.32
4705;BME280;2366;51.332;6.610;2023-02-15T09:56:28;102503.72;;;13.00;43.87
4705;BME280;2366;51.332;6.610;2023-02-15T10:05:33;102508.09;;;11.45;47.74
4705;BME280;2366;51.332;6.610;2023-02-15T10:13:36;102516.84;;;11.24;49.92
4705;BME280;2366;51.332;6.610;2023-02-15T10:16:19;102509.34;;;11.35;48.85
4705;BME280;2366;51.332;6.610;2023-02-15T10:24:39;102512.44;;;11.48;49.39
4705;BME280;2366;51.332;6.610;2023-02-15T10:27:12;102512.47;;;11.46;48.82
4705;BME280;2366;51.332;6.610;2023-02-15T10:29:45;102510.88;;;11.66;48.68
4705;BME280;2366;51.332;6.610;2023-02-15T10:32:26;102505.97;;;11.79;48.37
4705;BME280;2366;51.332;6.610;2023-02-15T10:43:18;102503.66;;;12.17;47.90
4705;BME280;2366;51.332;6.610;2023-02-15T10:50:59;102503.81;;;12.12;47.99
4705;BME280;2366;51.332;6.610;2023-02-15T11:07:26;102492.41;;;12.32;48.31
4705;BME280;2366;51.332;6.610;2023-02-15T11:12:27;102484.34;;;12.33;48.37
4705;BME280;2366;51.332;6.610;2023-02-15T11:14:58;102477.16;;;12.36;48.25
4705;BME280;2366;51.332;6.610;2023-02-15T11:17:30;102489.84;;;12.29;48.18
4705;BME280;2366;51.332;6.610;2023-02-15T11:20:15;102485.13;;;12.36;47.75
4705;BME280;2366;51.332;6.610;2023-02-15T11:22:47;102481.19;;;12.46;47.51
4705;BME280;2366;51.332;6.610;2023-02-15T11:25:25;102475.00;;;12.45;47.73
4705;BME280;2366;51.332;6.610;2023-02-15T11:27:54;102475.09;;;12.64;47.66
4705;BME280;2366;51.332;6.610;2023-02-15T11:30:22;102478.81;;;12.81;47.49
4705;BME280;2366;51.332;6.610;2023-02-15T11:32:50;102456.84;;;12.96;47.43
4705;BME280;2366;51.332;6.610;2023-02-15T11:35:28;102470.13;;;12.98;47.21
4705;BME280;2366;51.332;6.610;2023-02-15T11:38:18;102460.19;;;13.01;47.25
4705;BME280;2366;51.332;6.610;2023-02-15T11:40:48;102461.44;;;13.13;47.20
4705;BME280;2366;51.332;6.610;2023-02-15T11:43:26;102455.00;;;12.98;46.45
4705;BME280;2366;51.332;6.610;2023-02-15T11:45:54;102450.25;;;13.05;46.64
4705;BME280;2366;51.332;6.610;2023-02-15T11:48:19;102445.31;;;13.16;46.17
4705;BME280;2366;51.332;6.610;2023-02-15T11:50:45;102444.81;;;13.27;46.70
4705;BME280;2366;51.332;6.610;2023-02-15T11:53:14;102445.78;;;13.26;46.08
4705;BME280;2366;51.332;6.610;2023-02-15T11:55:43;102432.63;;;13.42;45.99
4705;BME280;2366;51.332;6.610;2023-02-15T11:58:37;102431.34;;;13.50;45.50
4705;BME280;2366;51.332;6.610;2023-02-15T12:04:12;102417.59;;;13.41;45.78
4705;BME280;2366;51.332;6.610;2023-02-15T12:06:49;102411.22;;;13.45;45.54
4705;BME280;2366;51.332;6.610;2023-02-15T12:09:40;102419.78;;;13.51;45.32
4705;BME280;2366;51.332;6.610;2023-02-15T12:12:20;102409.47;;;13.63;45.06
4705;BME280;2366;51.332;6.610;2023-02-15T12:14:52;102410.44;;;13.79;44.73
4705;BME280;2366;51.332;6.610;2023-02-15T12:17:22;102403.97;;;13.85;44.56
4705;BME280;2366;51.332;6.610;2023-02-15T12:19:49;102397.91;;;13.81;44.43
4705;BME280;2366;51.332;6.610;2023-02-15T12:22:32;102405.09;;;13.98;44.71
4705;BME280;2366;51.332;6.610;2023-02-15T12:25:00;102407.53;;;14.03;44.85
4705;BME280;2366;51.332;6.610;2023-02-15T12:27:32;102400.63;;;14.16;44.74
4705;BME280;2366;51.332;6.610;2023-02-15T12:30:00;102406.56;;;14.23;44.78
4705;BME280;2366;51.332;6.610;2023-02-15T12:32:34;102402.22;;;14.20;44.53
4705;BME280;2366;51.332;6.610;2023-02-15T12:35:08;102399.66;;;14.18;44.61
4705;BME280;2366;51.332;6.610;2023-02-15T12:37:34;102405.91;;;14.17;44.86
4705;BME280;2366;51.332;6.610;2023-02-15T12:40:18;102389.59;;;14.24;44.48
4705;BME280;2366;51.332;6.610;2023-02-15T12:42:44;102397.53;;;14.25;44.19
4705;BME280;2366;51.332;6.610;2023-02-15T12:45:26;102384.81;;;14.30;44.34
4705;BME280;2366;51.332;6.610;2023-02-15T12:48:17;102393.00;;;14.45;44.65
4705;BME280;2366;51.332;6.610;2023-02-15T12:50:50;102389.44;;;14.44;44.42
4705;BME280;2366;51.332;6.610;2023-02-15T12:55:58;102368.31;;;14.39;44.18
4705;BME280;2366;51.332;6.610;2023-02-15T12:58:28;102371.31;;;14.51;43.78
4705;BME280;2366;51.332;6.610;2023-02-15T13:04:00;102360.81;;;14.65;43.76
4705;BME280;2366;51.332;6.610;2023-02-15T13:06:28;102365.50;;;14.77;43.65
4705;BME280;2366;51.332;6.610;2023-02-15T13:08:58;;;;14.88;
4705;BME280;2366;51.332;6.610;2023-02-15T13:11:30;102352.63;;;14.86;43.66
4705;BME280;2366;51.332;6.610;2023-02-15T13:16:43;102341.06;;;14.85;43.83
4705;BME280;2366;51.332;6.610;2023-02-15T13:19:12;102345.81;;;14.96;43.63
4705;BME280;2366;51.332;6.610;2023-02-15T13:21:43;102344.25;;;14.92;43.55
4705;BME280;2366;51.332;6.610;2023-02-15T13:24:25;102337.97;;;14.93;43.76
4705;BME280;2366;51.332;6.610;2023-02-15T13:26:54;102324.44;;;14.96;43.37
4705;BME280;2366;51.332;6.610;2023-02-15T13:29:26;102327.13;;;14.96;42.57
4705;BME280;2366;51.332;6.610;2023-02-15T13:31:54;102320.78;;;14.98;42.71
4705;BME280;2366;51.332;6.610;2023-02-15T13:34:39;102321.56;;;15.16;42.88
4705;BME280;2366;51.332;6.610;2023-02-15T13:39:44;102323.72;;;15.26;42.79
4705;BME280;2366;51.332;6.610;2023-02-15T13:42:22;102320.63;;;15.33;42.37
4705;BME280;2366;51.332;6.610;2023-02-15T13:45:28;102314.81;;;15.41;42.45
4705;BME280;2366;51.332;6.610;2023-02-15T13:48:15;102318.13;;;15.46;42.63
4705;BME280;2366;51.332;6.610;2023-02-15T13:51:03;102302.09;;;15.46;42.03
4705;BME280;2366;51.332;6.610;2023-02-15T13:54:16;102315.19;;;15.51;41.91
4705;BME280;2366;51.332;6.610;2023-02-15T14:00:16;102317.59;;;15.55;42.22
4705;BME280;2366;51.332;6.610;2023-02-15T14:09:04;102303.38;;;15.55;42.06
4705;BME280;2366;51.332;6.610;2023-02-15T14:11:39;102311.63;;;15.50;41.99
4705;BME280;2366;51.332;6.610;2023-02-15T14:19:48;102304.56;;;15.49;42.23
4705;BME280;2366;51.332;6.610;2023-02-15T14:22:35;102300.53;;;15.42;42.67
4705;BME280;2366;51.332;6.610;2023-02-15T14:28:19;102284.00;;;15.35;42.80
4705;BME280;2366;51.332;6.610;2023-02-15T14:30:49;102284.84;;;15.36;42.90
4705;BME280;2366;51.332;6.610;2023-02-15T14:35:42;102293.78;;;15.35;42.79
4705;BME280;2366;51.332;6.610;2023-02-15T14:41:37;102279.25;;;15.25;42.60
4705;BME280;2366;51.332;6.610;2023-02-15T14:44:17;102287.09;;;15.28;42.40
4705;BME280;2366;51.332;6.610;2023-02-15T14:47:04;102283.28;;;15.32;42.25
4705;BME280;2366;51.332;6.610;2023-02-15T14:49:33;102279.84;;;15.30;42.36
4705;BME280;2366;51.332;6.610;2023-02-15T14:52:09;102279.78;;;15.31;42.79
4705;BME280;2366;51.332;6.610;2023-02-15T14:59:40;102278.13;;;15.45;42.53
4705;BME280;2366;51.332;6.610;2023-02-15T15:04:35;102268.47;;;15.42;43.20
4705;BME280;2366;51.332;6.610;2023-02-15T15:09:45;102267.34;;;15.46;43.95
4705;BME280;2366;51.332;6.610;2023-02-15T15:14:45;102269.63;;;15.52;44.14
4705;BME280;2366;51.332;6.610;2023-02-15T15:22:31;102276.88;;;15.50;44.28
4705;BME280;2366;51.332;6.610;2023-02-15T15:25:03;102278.03;;;15.46;44.37
4705;BME280;2366;51.332;6.610;2023-02-15T15:27:39;102281.06;;;15.40;44.46
4705;BME280;2366;51.332;6.610;2023-02-15T15:48:42;102280.06;;;14.77;46.09
4705;BME280;2366;51.332;6.610;2023-02-15T15:51:26;102279.69;;;14.68;46.45
4705;BME280;2366;51.332;6.610;2023-02-15T15:53:53;102280.13;;;14.60;46.99
4705;BME280;2366;51.332;6.610;2023-02-15T15:56:22;102274.28;;;14.52;47.54
4705;BME280;2366;51.332;6.610;2023-02-15T15:58:56;102271.94;;;14.46;47.84
4705;BME280;2366;51.332;6.610;2023-02-15T16:01:28;102274.25;;;14.36;48.13
4705;BME280;2366;51.332;6.610;2023-02-15T16:03:57;102274.66;;;14.28;48.44
4705;BME280;2366;51.332;6.610;2023-02-15T16:06:27;102275.13;;;14.19;48.84